Terminal Aerodrome Forecast
Issued by NWS Mobile, AL

Home | Current Version | Previous Version | Text Only | Print | Product List | Glossary On
Versions: 1 2 3 4 5 6 7 8 9 10 11 12 13 14 15 16 17
000
FTUS44 KMOB 162002 AAA
TAFPNS
TAF AMD
KPNS 162002Z 1620/1718 11009KT P6SM BKN009 BKN020 OVC040
     FM170300 14008KT 4SM BR BKN015 OVC025=

USA.gov is the U.S. government's official web portal to all federal, state and local government web resources and services.